createdAt,value
2019-01-16T06:44:27.853Z,75.46
2019-01-16T06:45:27.821Z,76.77
2019-01-16T06:46:27.864Z,75.87
2019-01-16T06:47:27.815Z,77.11
2019-01-16T06:48:27.797Z,75.97
2019-01-16T06:49:27.769Z,76.90
2019-01-16T06:50:27.763Z,75.87
2019-01-16T06:51:27.758Z,75.36
2019-01-16T06:52:28.215Z,75.36
2019-01-16T06:53:27.728Z,75.97
2019-01-16T06:54:27.720Z,75.36
2019-01-16T06:55:27.703Z,75.76
2019-01-16T06:56:27.690Z,75.36
2019-01-16T06:57:29.009Z,75.56
2019-01-16T06:58:27.688Z,75.46
2019-01-16T06:59:27.677Z,75.56
2019-01-16T07:00:27.652Z,75.59
2019-01-16T07:01:27.649Z,76.01
2019-01-16T07:02:27.639Z,75.70
2019-01-16T07:03:27.659Z,75.59
2019-01-16T07:04:27.613Z,75.76
2019-01-16T07:05:27.627Z,75.90
2019-01-16T07:06:27.608Z,75.70
2019-01-16T07:07:27.585Z,75.49
2019-01-16T07:08:27.582Z,75.18
2019-01-16T07:09:27.560Z,75.80
2019-01-16T07:10:27.984Z,76.11
2019-01-16T07:11:27.561Z,75.59
2019-01-16T07:12:27.518Z,75.59
2019-01-16T07:13:27.513Z,75.90
2019-01-16T07:14:28.402Z,76.01
2019-01-16T07:15:27.487Z,75.70
2019-01-16T07:16:27.482Z,75.59
2019-01-16T07:17:27.480Z,75.70
2019-01-16T07:18:27.455Z,75.90
2019-01-16T07:19:27.612Z,75.29
2019-01-16T07:20:27.430Z,75.59
2019-01-16T07:21:27.429Z,75.80
2019-01-16T07:22:27.413Z,75.80
2019-01-16T07:23:27.417Z,76.11
2019-01-16T07:24:27.413Z,77.25
2019-01-16T07:25:27.381Z,76.73
2019-01-16T07:26:27.377Z,76.83
2019-01-16T07:27:27.383Z,76.42
2019-01-16T07:28:27.406Z,76.53
2019-01-16T07:29:27.416Z,76.73
2019-01-16T07:30:28.046Z,76.83
2019-01-16T07:31:27.382Z,76.63
2019-01-16T07:32:27.299Z,76.22
2019-01-16T07:33:27.325Z,76.56
2019-01-16T07:34:27.279Z,76.63
2019-01-16T07:35:27.325Z,76.66
2019-01-16T07:36:27.281Z,76.42
2019-01-16T07:37:27.252Z,76.15
2019-01-16T07:38:27.260Z,76.53
2019-01-16T07:39:27.241Z,76.77
2019-01-16T07:40:27.312Z,76.77
2019-01-16T07:41:27.241Z,76.15
2019-01-16T07:42:27.221Z,77.39
2019-01-16T07:43:27.336Z,77.60
2019-01-16T07:44:27.234Z,76.45
2019-01-16T07:45:29.883Z,76.15
2019-01-16T07:46:27.232Z,76.87
2019-01-16T07:47:27.177Z,76.56
2019-01-16T07:48:27.144Z,76.73
2019-01-16T07:49:27.175Z,76.36
2019-01-16T07:50:27.120Z,76.25
2019-01-16T07:51:27.130Z,77.04
2019-01-16T07:52:27.141Z,75.94
2019-01-16T07:53:27.146Z,75.70
2019-01-16T07:54:27.120Z,76.15
2019-01-16T07:55:27.217Z,77.08
2019-01-16T07:56:27.139Z,76.36
2019-01-16T07:57:27.076Z,77.14
2019-01-16T07:58:27.101Z,77.08
2019-01-16T07:59:27.059Z,75.90
2019-01-16T08:00:27.053Z,76.01
2019-01-16T08:01:29.147Z,75.70
2019-01-16T08:02:27.055Z,76.11
2019-01-16T08:03:28.038Z,76.63
2019-01-16T08:04:27.022Z,76.11
2019-01-16T08:05:27.029Z,76.01
2019-01-16T08:06:26.964Z,75.59
2019-01-16T08:07:26.963Z,75.63
2019-01-16T08:08:27.038Z,76.04
2019-01-16T08:09:26.938Z,75.42
2019-01-16T08:10:26.912Z,75.73
2019-01-16T08:11:26.941Z,75.84
2019-01-16T08:12:26.866Z,75.73
2019-01-16T08:13:26.898Z,75.53
2019-01-16T08:14:26.891Z,75.11
2019-01-16T08:15:26.887Z,74.70
2019-01-16T08:16:26.842Z,74.87
2019-01-16T08:17:26.815Z,75.08
2019-01-16T08:18:30.448Z,75.11
2019-01-16T08:19:26.924Z,74.77
2019-01-16T08:20:26.825Z,75.11
2019-01-16T08:21:26.777Z,75.39
2019-01-16T08:22:26.761Z,75.49
2019-01-16T08:23:26.760Z,74.60
2019-01-16T08:24:26.816Z,75.21
2019-01-16T08:25:26.768Z,74.91
2019-01-16T08:26:26.725Z,74.77
2019-01-16T08:27:26.713Z,75.08
2019-01-16T08:28:26.702Z,74.29
2019-01-16T08:29:26.682Z,74.67
2019-01-16T08:30:35.558Z,74.35
2019-01-16T08:31:51.762Z,74.15
2019-01-16T08:32:51.736Z,74.60
2019-01-16T08:33:51.730Z,74.67
2019-01-16T08:34:51.728Z,73.84
2019-01-16T08:35:51.725Z,74.60
2019-01-16T08:36:51.722Z,74.87
2019-01-16T08:37:51.674Z,74.70
2019-01-16T08:38:51.738Z,74.60
2019-01-16T08:39:51.663Z,74.29
2019-01-16T08:40:51.665Z,74.39
2019-01-16T08:41:51.682Z,75.53
2019-01-16T08:42:51.672Z,75.11
2019-01-16T08:43:51.611Z,74.49
2019-01-16T08:44:51.623Z,74.81
2019-01-16T08:45:51.588Z,74.70
2019-01-16T08:46:53.259Z,74.18
2019-01-16T08:47:51.622Z,74.39
2019-01-16T08:48:51.685Z,74.81
2019-01-16T08:49:51.583Z,75.01
2019-01-16T08:50:51.588Z,74.60
2019-01-16T08:51:51.560Z,74.39
2019-01-16T08:52:51.589Z,74.70
2019-01-16T08:53:51.524Z,73.66
2019-01-16T08:54:51.493Z,74.08
2019-01-16T08:55:51.589Z,74.18
2019-01-16T08:56:51.476Z,73.98
2019-01-16T08:57:51.476Z,74.08
2019-01-16T08:58:51.518Z,73.36
2019-01-16T08:59:51.475Z,74.49
2019-01-16T09:00:51.464Z,74.39
2019-01-16T09:01:51.461Z,74.60
2019-01-16T09:02:51.782Z,74.35
2019-01-16T09:03:51.451Z,74.60
2019-01-16T09:04:51.465Z,74.91
2019-01-16T09:05:51.393Z,74.60
2019-01-16T09:06:51.441Z,74.29
2019-01-16T09:07:51.419Z,74.46
2019-01-16T09:08:51.432Z,73.87
2019-01-16T09:09:52.406Z,74.25
2019-01-16T09:10:52.441Z,74.35
2019-01-16T09:11:51.378Z,74.39
2019-01-16T09:12:51.294Z,74.29
2019-01-16T09:13:51.293Z,73.43
2019-01-16T09:14:51.298Z,73.74
2019-01-16T09:15:51.311Z,73.95
2019-01-16T09:16:51.249Z,73.95
2019-01-16T09:17:54.288Z,72.91
2019-01-16T09:18:51.308Z,72.91
2019-01-16T09:19:51.259Z,73.22
2019-01-16T09:20:51.266Z,72.71
2019-01-16T09:21:51.220Z,72.91
2019-01-16T09:22:51.236Z,72.91
2019-01-16T09:23:51.197Z,72.57
2019-01-16T09:24:51.245Z,72.98
2019-01-16T09:25:51.207Z,72.98
2019-01-16T09:26:51.180Z,72.36
2019-01-16T09:27:51.181Z,73.19
2019-01-16T09:28:52.289Z,73.49
2019-01-16T09:29:51.172Z,73.39
2019-01-16T09:30:51.167Z,72.77
2019-01-16T09:31:51.153Z,72.98
2019-01-16T09:32:51.112Z,73.08
2019-01-16T09:33:51.095Z,73.08
2019-01-16T09:34:51.157Z,72.77
2019-01-16T09:35:51.122Z,72.88
2019-01-16T09:36:51.089Z,72.15
2019-01-16T09:37:51.026Z,72.98
2019-01-16T09:38:51.035Z,73.80
2019-01-16T09:39:51.055Z,73.70
2019-01-16T09:40:50.993Z,73.70
2019-01-16T09:41:52.091Z,73.39
2019-01-16T09:42:51.036Z,72.77
2019-01-16T09:43:51.029Z,73.08
2019-01-16T09:44:51.026Z,73.91
2019-01-16T09:45:50.998Z,73.80
2019-01-16T09:46:50.989Z,73.01
2019-01-16T09:47:50.985Z,73.49
2019-01-16T09:48:51.176Z,73.84
2019-01-16T09:49:50.994Z,73.12
2019-01-16T09:50:51.074Z,72.98
2019-01-16T09:51:50.946Z,72.98
2019-01-16T09:52:50.942Z,73.60
2019-01-16T09:53:51.019Z,74.43
2019-01-16T09:54:50.895Z,73.91
2019-01-16T09:55:50.931Z,74.12
2019-01-16T09:56:50.929Z,74.32
2019-01-16T09:57:50.842Z,73.29
2019-01-16T09:58:50.815Z,73.49
2019-01-16T09:59:50.919Z,73.29
2019-01-16T10:00:50.822Z,73.29
2019-01-16T10:01:50.856Z,73.60
2019-01-16T10:02:50.831Z,73.05
2019-01-16T10:03:50.803Z,72.54
2019-01-16T10:04:50.818Z,72.33
2019-01-16T10:05:50.821Z,72.54
2019-01-16T10:06:50.711Z,72.12
2019-01-16T10:07:50.774Z,73.05
2019-01-16T10:08:50.723Z,72.74
2019-01-16T10:09:50.729Z,72.43
2019-01-16T10:10:51.667Z,72.02
2019-01-16T10:11:50.699Z,71.99
2019-01-16T10:12:57.722Z,71.57
2019-01-16T10:14:15.959Z,71.91
2019-01-16T10:15:15.962Z,72.19
2019-01-16T10:16:21.030Z,72.50
2019-01-16T10:17:15.917Z,71.91
2019-01-16T10:18:15.886Z,71.88
2019-01-16T10:19:15.832Z,72.02
2019-01-16T10:20:15.866Z,71.71
2019-01-16T10:21:15.807Z,71.57
2019-01-16T10:22:19.123Z,72.02
2019-01-16T10:23:15.827Z,71.91
2019-01-16T10:24:15.823Z,72.64
2019-01-16T10:25:18.821Z,72.50
2019-01-16T10:26:15.761Z,71.88
2019-01-16T10:27:15.720Z,71.57
2019-01-16T10:28:15.709Z,71.26
2019-01-16T10:29:15.814Z,71.16
2019-01-16T10:30:15.685Z,71.36
2019-01-16T10:31:15.671Z,71.36
2019-01-16T10:32:15.687Z,71.26
2019-01-16T10:33:15.677Z,71.26
2019-01-16T10:34:15.699Z,71.06
2019-01-16T10:35:15.658Z,71.57
2019-01-16T10:36:15.679Z,71.57
2019-01-16T10:37:15.671Z,71.57
2019-01-16T10:38:15.620Z,71.36
2019-01-16T10:39:15.575Z,71.36
2019-01-16T10:40:16.976Z,71.19
2019-01-16T10:41:15.609Z,71.67
2019-01-16T10:42:15.554Z,71.78
2019-01-16T10:43:15.563Z,71.26
2019-01-16T10:44:15.559Z,71.47
2019-01-16T10:45:15.589Z,71.26
2019-01-16T10:46:15.547Z,71.26
2019-01-16T10:47:15.494Z,71.26
2019-01-16T10:48:16.002Z,71.47
2019-01-16T10:49:15.545Z,71.99
2019-01-16T10:50:15.603Z,71.85
2019-01-16T10:51:15.466Z,71.16
2019-01-16T10:52:15.444Z,70.71
2019-01-16T10:53:15.429Z,71.33
2019-01-16T10:54:15.433Z,70.81
2019-01-16T10:55:15.427Z,70.03
2019-01-16T10:56:15.405Z,71.06
2019-01-16T10:57:15.427Z,70.30
2019-01-16T10:58:15.420Z,71.36
2019-01-16T10:59:15.411Z,71.47
2019-01-16T11:01:15.353Z,71.26
2019-01-16T11:02:26.939Z,71.67
2019-01-16T11:03:40.804Z,71.78
2019-01-16T11:04:40.858Z,71.88
2019-01-16T11:05:41.815Z,72.09
2019-01-16T11:06:40.780Z,71.88
2019-01-16T11:07:40.862Z,71.88
2019-01-16T11:08:40.779Z,71.36
2019-01-16T11:09:40.737Z,71.19
2019-01-16T11:10:40.775Z,71.67
2019-01-16T11:11:42.131Z,71.09
2019-01-16T11:12:41.903Z,71.60
2019-01-16T11:13:40.709Z,71.60
2019-01-16T11:14:40.694Z,72.22
2019-01-16T11:15:51.746Z,71.47
2019-01-16T11:17:16.462Z,72.09
2019-01-16T11:18:16.482Z,71.06
2019-01-16T11:19:16.465Z,71.26
2019-01-16T11:20:16.474Z,71.36
2019-01-16T11:21:16.431Z,71.36
2019-01-16T11:22:16.435Z,71.26
2019-01-16T11:23:16.393Z,70.23
2019-01-16T11:24:16.398Z,71.02
2019-01-16T11:25:16.367Z,71.23
2019-01-16T11:26:16.358Z,71.13
2019-01-16T11:27:16.362Z,71.33
2019-01-16T11:28:16.347Z,70.30
2019-01-16T11:29:16.340Z,71.02
2019-01-16T11:30:16.376Z,70.61
2019-01-16T11:31:25.167Z,71.13
2019-01-16T11:32:56.267Z,70.20
2019-01-16T11:34:02.511Z,69.58
2019-01-16T11:35:21.566Z,70.17
2019-01-16T11:36:20.887Z,71.20
2019-01-16T11:37:21.294Z,69.75
2019-01-16T11:38:20.923Z,69.03
2019-01-16T11:39:20.856Z,69.51
2019-01-16T11:40:20.860Z,69.03
2019-01-16T11:41:20.834Z,69.03
2019-01-16T11:42:20.822Z,68.93
2019-01-16T11:43:21.811Z,69.14
2019-01-16T11:44:21.176Z,69.75
2019-01-16T11:45:20.807Z,70.75
2019-01-16T11:46:20.837Z,69.96
2019-01-16T11:47:20.759Z,70.89
2019-01-16T11:48:21.397Z,69.54
2019-01-16T11:49:20.741Z,70.37
2019-01-16T11:50:20.747Z,69.24
2019-01-16T11:51:20.726Z,70.06
2019-01-16T11:52:20.710Z,69.11
2019-01-16T11:53:20.700Z,71.20
2019-01-16T11:54:20.704Z,69.96
2019-01-16T11:55:21.075Z,69.72
2019-01-16T11:56:20.987Z,69.21
2019-01-16T11:57:20.665Z,69.31
2019-01-16T11:58:20.653Z,69.00
2019-01-16T11:59:20.636Z,69.31
2019-01-16T12:00:20.671Z,69.93
2019-01-16T12:01:20.612Z,69.31
2019-01-16T12:02:20.596Z,69.00
2019-01-16T12:03:20.643Z,69.03
2019-01-16T12:04:20.580Z,69.86
2019-01-16T12:05:23.356Z,69.54
2019-01-16T12:06:20.549Z,69.31
2019-01-16T12:07:20.598Z,69.45
2019-01-16T12:08:20.532Z,69.34
2019-01-16T12:09:20.571Z,68.93
2019-01-16T12:10:20.516Z,69.75
2019-01-16T12:11:20.501Z,69.65
2019-01-16T12:12:20.504Z,69.65
2019-01-16T12:13:20.487Z,70.23
2019-01-16T12:14:20.477Z,69.72
2019-01-16T12:15:20.453Z,69.31
2019-01-16T12:16:20.451Z,68.48
2019-01-16T12:17:20.448Z,69.62
2019-01-16T12:18:20.433Z,69.28
2019-01-16T12:19:20.446Z,69.00
2019-01-16T12:20:20.465Z,69.28
2019-01-16T12:21:26.282Z,69.07
2019-01-16T12:22:46.145Z,69.38
2019-01-16T12:23:46.003Z,68.56
2019-01-16T12:24:45.958Z,69.07
2019-01-16T12:25:45.940Z,68.66
2019-01-16T12:26:45.974Z,67.84
2019-01-16T12:27:45.928Z,68.21
2019-01-16T12:28:45.902Z,67.49
2019-01-16T12:29:45.882Z,67.49
2019-01-16T12:30:45.891Z,67.39
2019-01-16T12:31:45.886Z,67.29
2019-01-16T12:32:45.871Z,66.98
2019-01-16T12:33:45.865Z,67.60
2019-01-16T12:34:45.849Z,67.49
2019-01-16T12:35:45.825Z,67.81
2019-01-16T12:36:45.820Z,66.98
2019-01-16T12:37:45.805Z,67.39
2019-01-16T12:38:45.784Z,67.08
2019-01-16T12:39:45.855Z,67.39
2019-01-16T12:40:45.770Z,67.29
2019-01-16T12:41:45.822Z,67.05
2019-01-16T12:42:45.768Z,67.26
2019-01-16T12:43:45.742Z,67.05
2019-01-16T12:44:45.744Z,66.85
2019-01-16T12:45:45.715Z,66.51
2019-01-16T12:46:45.708Z,66.64
2019-01-16T12:47:45.686Z,66.71
2019-01-16T12:48:45.700Z,67.26
2019-01-16T12:49:45.675Z,66.95
2019-01-16T12:50:45.681Z,66.33
2019-01-16T12:51:46.650Z,65.92
2019-01-16T12:52:45.665Z,67.26
2019-01-16T12:53:45.702Z,66.44
2019-01-16T12:54:45.639Z,67.19
2019-01-16T12:55:45.637Z,66.98
2019-01-16T12:56:45.650Z,66.88
2019-01-16T12:57:45.586Z,67.81
2019-01-16T12:58:45.597Z,67.16
2019-01-16T12:59:45.560Z,67.29
2019-01-16T13:00:45.579Z,67.05
2019-01-16T13:01:45.543Z,67.16
2019-01-16T13:02:45.529Z,66.95
2019-01-16T13:03:45.539Z,66.98
2019-01-16T13:04:45.533Z,66.88
2019-01-16T13:05:45.558Z,66.98
2019-01-16T13:06:45.500Z,67.16
2019-01-16T13:07:45.476Z,67.46
2019-01-16T13:08:45.490Z,67.26
2019-01-16T13:09:45.453Z,67.05
2019-01-16T13:10:45.467Z,67.16
2019-01-16T13:11:45.447Z,67.05
2019-01-16T13:12:45.420Z,66.61
2019-01-16T13:13:48.520Z,66.82
2019-01-16T13:14:45.400Z,66.71
2019-01-16T13:15:45.407Z,65.79
2019-01-16T13:16:45.462Z,67.02
2019-01-16T13:17:45.444Z,65.89
2019-01-16T13:18:48.999Z,65.99
2019-01-16T13:19:45.337Z,66.41
2019-01-16T13:20:45.337Z,66.51
2019-01-16T13:21:45.323Z,66.41
2019-01-16T13:22:46.251Z,66.61
2019-01-16T13:23:45.329Z,66.51
2019-01-16T13:24:45.329Z,65.89
2019-01-16T13:25:45.287Z,65.79
2019-01-16T13:26:45.278Z,65.58
2019-01-16T13:27:45.251Z,65.96
2019-01-16T13:28:45.240Z,65.66
2019-01-16T13:29:45.235Z,65.35
2019-01-16T13:30:45.217Z,65.69
2019-01-16T13:31:45.214Z,65.24
2019-01-16T13:32:45.214Z,65.45
2019-01-16T13:33:45.207Z,65.69
2019-01-16T13:34:45.191Z,65.38
2019-01-16T13:35:45.806Z,65.76
2019-01-16T13:36:45.150Z,64.97
2019-01-16T13:37:45.152Z,65.24
2019-01-16T13:38:46.024Z,66.51
2019-01-16T13:39:45.190Z,65.58
2019-01-16T13:40:45.108Z,65.27
2019-01-16T13:41:45.550Z,64.45
2019-01-16T13:42:45.123Z,65.69
2019-01-16T13:43:45.097Z,65.10
2019-01-16T13:44:45.069Z,65.61
2019-01-16T13:45:47.088Z,65.61
2019-01-16T13:47:09.684Z,65.41
2019-01-16T13:48:09.838Z,65.51
2019-01-16T13:49:09.655Z,65.92
2019-01-16T13:50:11.564Z,66.02
2019-01-16T13:51:09.653Z,66.16
2019-01-16T13:52:09.619Z,66.02
2019-01-16T13:53:09.655Z,66.16
2019-01-16T13:54:09.813Z,67.19
2019-01-16T13:55:09.598Z,66.26
2019-01-16T13:56:09.573Z,65.95
2019-01-16T13:57:09.606Z,66.70
2019-01-16T13:58:09.564Z,66.08
2019-01-16T13:59:09.562Z,67.22
2019-01-16T14:00:19.995Z,67.63
2019-01-16T14:01:10.543Z,66.91
2019-01-16T14:02:09.529Z,66.83
2019-01-16T14:03:09.522Z,67.12
2019-01-16T14:04:09.495Z,67.15
2019-01-16T14:05:09.539Z,67.04
2019-01-16T14:06:09.474Z,66.74
2019-01-16T14:07:09.485Z,67.28
2019-01-16T14:08:09.894Z,67.38
2019-01-16T14:09:09.445Z,67.59
2019-01-16T14:10:09.449Z,68.85
2019-01-16T14:11:09.418Z,68.03
2019-01-16T14:12:09.400Z,67.18
2019-01-16T14:13:09.399Z,67.73
2019-01-16T14:14:09.389Z,67.70
2019-01-16T14:15:09.707Z,68.03
2019-01-16T14:16:10.359Z,67.41
2019-01-16T14:17:09.347Z,68.76
2019-01-16T14:18:09.490Z,69.58
2019-01-16T14:19:09.413Z,68.76
2019-01-16T14:20:09.319Z,69.09
2019-01-16T14:21:09.413Z,69.51
2019-01-16T14:22:09.419Z,68.37
2019-01-16T14:23:09.293Z,69.40
2019-01-16T14:24:09.300Z,69.00
2019-01-16T14:25:09.319Z,69.20
2019-01-16T14:26:09.257Z,69.30
2019-01-16T14:27:09.259Z,69.20
2019-01-16T14:28:09.243Z,70.03
2019-01-16T14:29:11.843Z,69.95
2019-01-16T14:30:21.239Z,69.95
2019-01-16T14:31:10.217Z,70.33
2019-01-16T14:32:15.115Z,70.37
2019-01-16T14:33:10.202Z,71.30
2019-01-16T14:34:09.165Z,71.22
2019-01-16T14:35:09.148Z,71.50
2019-01-16T14:36:09.298Z,70.40
2019-01-16T14:37:09.215Z,70.98
2019-01-16T14:38:09.121Z,71.53
2019-01-16T14:39:09.176Z,71.43
2019-01-16T14:40:09.105Z,71.33
2019-01-16T14:41:09.165Z,70.81
2019-01-16T14:42:09.244Z,71.53
2019-01-16T14:43:09.146Z,71.43
2019-01-16T14:44:09.068Z,71.95
2019-01-16T14:45:10.865Z,71.64
2019-01-16T14:46:09.066Z,71.43
2019-01-16T14:47:09.013Z,71.64
2019-01-16T14:48:09.045Z,71.67
2019-01-16T14:49:08.992Z,72.05
2019-01-16T14:50:08.986Z,71.98
2019-01-16T14:51:08.993Z,71.77
2019-01-16T14:52:08.974Z,71.74
2019-01-16T14:53:08.975Z,72.50
2019-01-16T14:54:08.949Z,72.29
2019-01-16T14:55:08.940Z,71.56
2019-01-16T14:56:08.918Z,72.19
2019-01-16T14:57:08.938Z,72.71
2019-01-16T14:58:08.901Z,72.60
2019-01-16T14:59:09.387Z,72.39
2019-01-16T15:00:09.386Z,72.80
2019-01-16T15:01:08.862Z,72.71
2019-01-16T15:02:08.924Z,72.80
2019-01-16T15:03:08.897Z,73.01
2019-01-16T15:04:08.849Z,72.39
2019-01-16T15:05:08.825Z,72.60
2019-01-16T15:06:08.810Z,72.71
2019-01-16T15:07:08.821Z,72.71
2019-01-16T15:08:08.816Z,72.84
2019-01-16T15:09:08.825Z,73.15
2019-01-16T15:10:08.791Z,73.95
2019-01-16T15:11:08.755Z,73.66
2019-01-16T15:12:08.775Z,73.15
2019-01-16T15:13:08.736Z,73.77
2019-01-16T15:14:08.725Z,74.53
2019-01-16T15:15:10.957Z,74.70
2019-01-16T15:16:09.728Z,74.70
2019-01-16T15:17:08.747Z,74.84
2019-01-16T15:18:08.751Z,74.63
2019-01-16T15:19:08.670Z,74.84
2019-01-16T15:20:08.658Z,75.15
2019-01-16T15:21:08.658Z,74.94
2019-01-16T15:22:08.634Z,74.63
2019-01-16T15:23:08.632Z,75.04
2019-01-16T15:24:08.668Z,74.63
2019-01-16T15:25:08.607Z,74.94
2019-01-16T15:26:08.600Z,75.46
2019-01-16T15:27:08.581Z,74.84
2019-01-16T15:28:08.587Z,75.15
2019-01-16T15:29:08.597Z,75.67
2019-01-16T15:30:16.536Z,75.46
2019-01-16T15:31:09.538Z,76.01
2019-01-16T15:32:08.534Z,75.98
2019-01-16T15:33:08.515Z,76.08
2019-01-16T15:34:08.507Z,75.04
2019-01-16T15:35:08.510Z,76.59
2019-01-16T15:36:08.536Z,76.01
2019-01-16T15:37:08.476Z,75.50
2019-01-16T15:38:08.469Z,76.42
2019-01-16T15:39:08.519Z,75.90
2019-01-16T15:40:11.168Z,75.70
2019-01-16T15:41:08.496Z,75.50
2019-01-16T15:42:08.445Z,76.53
2019-01-16T15:43:08.416Z,76.42
2019-01-16T15:44:08.492Z,76.84
2019-01-16T15:45:19.068Z,76.15
2019-01-16T15:46:09.378Z,76.04
2019-01-16T15:47:08.382Z,76.04
2019-01-16T15:48:08.361Z,75.73
2019-01-16T15:49:08.344Z,76.46
2019-01-16T15:50:08.342Z,76.04
2019-01-16T15:51:08.328Z,77.19
2019-01-16T15:52:12.949Z,76.46
2019-01-16T15:53:08.298Z,76.87
2019-01-16T15:54:08.302Z,77.19
2019-01-16T15:55:08.294Z,77.28
2019-01-16T15:56:08.266Z,76.87
2019-01-16T15:57:08.259Z,76.77
2019-01-16T15:58:08.458Z,77.19
2019-01-16T15:59:08.239Z,76.81
2019-01-16T16:00:13.609Z,76.70
2019-01-16T16:01:08.215Z,77.32
2019-01-16T16:02:08.250Z,77.11
2019-01-16T16:03:08.195Z,77.11
2019-01-16T16:04:08.189Z,77.53
2019-01-16T16:05:08.746Z,76.70
2019-01-16T16:06:08.190Z,77.36
2019-01-16T16:07:08.158Z,77.77
2019-01-16T16:08:08.159Z,78.08
2019-01-16T16:09:09.566Z,79.16
2019-01-16T16:10:08.117Z,78.81
2019-01-16T16:11:08.159Z,78.91
2019-01-16T16:12:08.124Z,79.22
2019-01-16T16:13:08.087Z,78.29
2019-01-16T16:14:08.073Z,78.74
2019-01-16T16:15:08.065Z,79.26
2019-01-16T16:16:08.056Z,79.16
2019-01-16T16:17:08.043Z,79.16
2019-01-16T16:18:08.047Z,78.54
2019-01-16T16:19:09.024Z,78.85
2019-01-16T16:20:08.019Z,78.95
2019-01-16T16:21:08.052Z,79.05
2019-01-16T16:22:07.989Z,79.02
2019-01-16T16:23:07.988Z,78.95
2019-01-16T16:24:07.973Z,78.95
2019-01-16T16:25:07.954Z,78.08
2019-01-16T16:26:07.998Z,78.12
2019-01-16T16:27:07.931Z,79.05
2019-01-16T16:28:07.979Z,78.22
2019-01-16T16:29:07.914Z,78.33
2019-01-16T16:30:14.044Z,79.16
2019-01-16T16:31:32.972Z,78.95
2019-01-16T16:32:32.997Z,78.12
2019-01-16T16:33:33.000Z,78.12
2019-01-16T16:34:32.940Z,78.12
2019-01-16T16:35:32.935Z,78.33
2019-01-16T16:36:32.933Z,79.26
2019-01-16T16:37:32.915Z,79.05
2019-01-16T16:38:32.891Z,78.85
2019-01-16T16:39:32.906Z,78.43
2019-01-16T16:40:32.873Z,79.09
2019-01-16T16:41:32.862Z,79.26
2019-01-16T16:42:32.852Z,79.05
2019-01-16T16:43:32.856Z,79.09
2019-01-16T16:44:32.826Z,79.40
2019-01-16T16:45:33.032Z,79.09
2019-01-16T16:46:32.817Z,79.40
2019-01-16T16:47:32.796Z,80.47
2019-01-16T16:48:32.780Z,80.85
2019-01-16T16:49:32.777Z,81.20
2019-01-16T16:50:32.763Z,80.74
2019-01-16T16:51:32.751Z,80.85
2019-01-16T16:52:32.740Z,80.74
2019-01-16T16:53:32.728Z,80.64
2019-01-16T16:54:32.717Z,80.85
2019-01-16T16:55:32.721Z,80.54
2019-01-16T16:56:32.696Z,79.40
2019-01-16T16:57:32.814Z,79.88
2019-01-16T16:58:32.674Z,80.09
2019-01-16T16:59:32.712Z,80.09
2019-01-16T17:00:32.659Z,79.57
2019-01-16T17:01:32.719Z,79.88
2019-01-16T17:02:32.630Z,79.47
2019-01-16T17:03:32.626Z,80.29
2019-01-16T17:04:32.612Z,79.16
2019-01-16T17:05:32.931Z,79.26
2019-01-16T17:06:32.604Z,78.33
2019-01-16T17:07:32.640Z,78.54
2019-01-16T17:08:32.653Z,78.74
2019-01-16T17:09:32.558Z,78.74
2019-01-16T17:10:32.542Z,78.54
2019-01-16T17:11:32.569Z,79.16
2019-01-16T17:12:32.527Z,79.16
2019-01-16T17:13:32.528Z,79.26
2019-01-16T17:14:32.524Z,79.16
2019-01-16T17:15:32.689Z,79.37
2019-01-16T17:16:32.616Z,79.26
2019-01-16T17:17:32.497Z,79.88
2019-01-16T17:18:32.464Z,79.37
2019-01-16T17:19:32.447Z,80.19
2019-01-16T17:20:32.445Z,80.60
2019-01-16T17:21:32.493Z,80.29
2019-01-16T17:22:32.571Z,79.37
2019-01-16T17:23:32.410Z,79.30
2019-01-16T17:24:32.390Z,79.61
2019-01-16T17:25:32.385Z,78.78
2019-01-16T17:26:33.379Z,79.51
2019-01-16T17:27:32.376Z,79.61
2019-01-16T17:28:32.345Z,80.85
2019-01-16T17:29:32.330Z,79.91
2019-01-16T17:30:32.323Z,80.23
2019-01-16T17:31:32.316Z,80.64
2019-01-16T17:32:32.314Z,80.54
2019-01-16T17:33:32.307Z,79.95
2019-01-16T17:34:32.285Z,80.85
2019-01-16T17:35:32.272Z,80.47
2019-01-16T17:36:32.262Z,80.57
2019-01-16T17:37:32.266Z,79.91
2019-01-16T17:38:32.242Z,80.68
2019-01-16T17:39:32.233Z,80.12
2019-01-16T17:40:32.219Z,79.95
2019-01-16T17:41:32.212Z,80.54
2019-01-16T17:42:32.193Z,80.57
2019-01-16T17:43:32.330Z,80.43
2019-01-16T17:44:32.183Z,79.95
2019-01-16T17:45:32.235Z,80.23
2019-01-16T17:46:32.150Z,79.74
2019-01-16T17:47:32.170Z,79.61
2019-01-16T17:48:32.135Z,79.54
2019-01-16T17:49:32.115Z,79.44
2019-01-16T17:50:32.113Z,79.85
2019-01-16T17:51:32.091Z,79.95
2019-01-16T17:52:32.081Z,80.88
2019-01-16T17:53:32.119Z,80.88
2019-01-16T17:54:32.070Z,80.16
2019-01-16T17:55:32.051Z,80.37
2019-01-16T17:56:32.061Z,79.74
2019-01-16T17:57:32.038Z,80.78
2019-01-16T17:58:32.072Z,80.57
2019-01-16T17:59:32.034Z,80.93
2019-01-16T18:00:31.997Z,81.20
2019-01-16T18:01:31.995Z,80.47
2019-01-16T18:02:32.035Z,80.78
2019-01-16T18:03:31.962Z,81.24
2019-01-16T18:04:31.951Z,81.14
2019-01-16T18:05:31.952Z,80.78
2019-01-16T18:06:31.935Z,80.68
2019-01-16T18:07:31.919Z,80.82
2019-01-16T18:08:31.911Z,81.03
2019-01-16T18:09:32.050Z,81.24
2019-01-16T18:10:31.928Z,81.14
2019-01-16T18:11:31.935Z,81.65
2019-01-16T18:12:31.861Z,81.55
2019-01-16T18:13:31.854Z,81.55
2019-01-16T18:14:31.909Z,81.45
2019-01-16T18:15:31.837Z,81.14
2019-01-16T18:16:31.826Z,81.14
2019-01-16T18:17:31.815Z,81.34
2019-01-16T18:18:31.805Z,81.24
2019-01-16T18:19:31.793Z,81.24
2019-01-16T18:20:31.776Z,81.34
2019-01-16T18:21:31.779Z,81.14
2019-01-16T18:22:31.824Z,81.45
2019-01-16T18:23:31.751Z,81.45
2019-01-16T18:24:31.745Z,81.24
2019-01-16T18:25:31.720Z,80.72
2019-01-16T18:26:31.714Z,81.24
2019-01-16T18:27:31.699Z,81.55
2019-01-16T18:28:31.723Z,81.76
2019-01-16T18:29:31.704Z,81.69
2019-01-16T18:30:31.665Z,81.97
2019-01-16T18:31:31.687Z,81.76
2019-01-16T18:32:31.664Z,81.45
2019-01-16T18:33:31.660Z,81.76
2019-01-16T18:34:31.622Z,81.86
2019-01-16T18:35:31.624Z,81.65
2019-01-16T18:36:31.599Z,81.65
2019-01-16T18:37:31.594Z,81.76
2019-01-16T18:38:31.584Z,82.59
2019-01-16T18:39:31.576Z,82.21
2019-01-16T18:40:31.559Z,82.31
2019-01-16T18:41:31.541Z,82.11
2019-01-16T18:42:31.535Z,83.21
2019-01-16T18:43:31.572Z,82.21
2019-01-16T18:44:31.518Z,83.25
2019-01-16T18:45:31.571Z,82.52
2019-01-16T18:46:31.499Z,83.45
2019-01-16T18:47:31.488Z,83.35
2019-01-16T18:48:32.431Z,83.25
2019-01-16T18:49:31.484Z,83.25
2019-01-16T18:50:31.450Z,83.25
2019-01-16T18:51:31.453Z,83.04
2019-01-16T18:52:31.659Z,83.04
2019-01-16T18:53:31.416Z,82.83
2019-01-16T18:54:31.406Z,83.14
2019-01-16T18:55:31.400Z,83.35
2019-01-16T18:56:31.394Z,82.73
2019-01-16T18:57:31.378Z,83.25
2019-01-16T18:58:31.362Z,83.14
2019-01-16T18:59:31.354Z,82.62
2019-01-16T19:00:31.342Z,82.94
2019-01-16T19:01:31.339Z,82.94
2019-01-16T19:02:31.341Z,83.28
2019-01-16T19:03:31.314Z,83.91
2019-01-16T19:04:31.296Z,83.28
2019-01-16T19:05:31.341Z,83.91
2019-01-16T19:06:31.276Z,84.22
2019-01-16T19:07:31.327Z,84.42
2019-01-16T19:08:31.261Z,83.39
2019-01-16T19:09:31.241Z,83.59
2019-01-16T19:10:31.242Z,84.22
2019-01-16T19:11:31.214Z,84.08
2019-01-16T19:12:31.203Z,84.22
2019-01-16T19:13:31.199Z,84.53
2019-01-16T19:14:31.186Z,84.42
2019-01-16T19:15:31.185Z,84.53
2019-01-16T19:16:31.168Z,84.22
2019-01-16T19:17:31.153Z,83.49
2019-01-16T19:18:31.152Z,83.49
2019-01-16T19:19:31.171Z,83.35
2019-01-16T19:20:31.120Z,83.25
2019-01-16T19:21:31.104Z,83.45
2019-01-16T19:22:31.094Z,82.83
2019-01-16T19:23:31.084Z,83.28
2019-01-16T19:24:31.071Z,83.39
2019-01-16T19:25:31.080Z,83.18
2019-01-16T19:26:31.067Z,83.39
2019-01-16T19:27:31.036Z,83.91
2019-01-16T19:28:31.051Z,84.11
2019-01-16T19:29:31.030Z,84.53
2019-01-16T19:30:31.009Z,84.15
2019-01-16T19:31:30.990Z,84.15
2019-01-16T19:32:30.998Z,84.22
2019-01-16T19:33:30.969Z,84.32
2019-01-16T19:34:30.965Z,83.91
2019-01-16T19:35:30.954Z,83.70
2019-01-16T19:36:30.977Z,83.87
2019-01-16T19:37:30.925Z,83.28
2019-01-16T19:38:30.937Z,83.28
2019-01-16T19:39:30.908Z,83.14
2019-01-16T19:40:30.894Z,83.04
2019-01-16T19:41:30.975Z,82.69